Nesher, Israel
Current Conditions -  °F | °C
As of 4:50 PM on Sunday 23 Nov 2014 (Local Time) from LLHA Reporting Station
Scattered Clouds Scattered Clouds  
Wind Chill: 61°   Ceiling: Unl
Heat Index: 61°   Visibility: 6mi
Dew Point: 54°   Wind: 5mph
Humidity: 77%   Direction: 120°ESE
Pressure: 29.94"   Gusts: NA
Location:  32.75°N, 35.06°E
Report Text: LLHA 231450Z 12004KT 9999 FEW025 SCT040 16/12 Q1014
Loading
Personal Weather Stations






























Interactive Weather Map New forecast layout! Learn more

10-Day Weather Forecast

Advertisements
Track Severe Weather on mobile